createdAt,value
2019-04-30T00:01:48.662Z,101402.00
2019-04-30T00:04:25.271Z,101399.00
2019-04-30T00:06:55.636Z,101395.00
2019-04-30T00:09:26.407Z,101391.00
2019-04-30T00:12:01.035Z,101395.00
2019-04-30T00:14:32.509Z,101393.00
2019-04-30T00:16:58.614Z,101388.00
2019-04-30T00:19:28.009Z,101383.00
2019-04-30T00:22:00.309Z,101381.00
2019-04-30T00:24:28.472Z,101383.00
2019-04-30T00:26:57.878Z,101385.00
2019-04-30T00:29:30.848Z,101380.00
2019-04-30T00:32:04.569Z,101376.00
2019-04-30T00:34:30.925Z,101378.00
2019-04-30T00:37:00.980Z,101379.00
2019-04-30T00:39:30.352Z,101371.00
2019-04-30T00:41:59.737Z,101377.00
2019-04-30T00:44:29.328Z,101365.00
2019-04-30T00:47:00.664Z,101371.00
2019-04-30T00:49:29.835Z,101368.00
2019-04-30T00:51:59.197Z,101364.00
2019-04-30T00:54:30.877Z,101366.00
2019-04-30T00:57:04.532Z,101371.00
2019-04-30T00:59:31.133Z,101367.00
2019-04-30T01:02:02.146Z,101367.00
2019-04-30T01:04:39.003Z,101364.00
2019-04-30T01:07:09.503Z,101368.00
2019-04-30T01:09:39.736Z,101363.00
2019-04-30T01:12:10.036Z,101366.00
2019-04-30T01:14:39.405Z,101365.00
2019-04-30T01:17:12.118Z,101367.00
2019-04-30T01:19:39.947Z,101363.00
2019-04-30T01:22:09.323Z,101355.00
2019-04-30T01:24:38.803Z,101361.00
2019-04-30T01:27:10.662Z,101357.00
2019-04-30T01:29:44.108Z,101352.00
2019-04-30T01:32:17.620Z,101349.00
2019-04-30T01:34:44.372Z,101364.00
2019-04-30T01:37:13.686Z,101355.00
2019-04-30T01:39:43.062Z,101356.00
2019-04-30T01:42:12.428Z,101350.00
2019-04-30T01:44:43.489Z,101351.00
2019-04-30T01:47:13.810Z,101343.00
2019-04-30T01:49:44.824Z,101356.00
2019-04-30T01:52:14.379Z,101366.00
2019-04-30T01:54:43.745Z,101357.00
2019-04-30T01:57:30.768Z,101349.00
2019-04-30T02:00:04.490Z,101360.00
2019-04-30T02:02:35.485Z,101364.00
2019-04-30T02:05:08.946Z,101364.00
2019-04-30T02:07:38.794Z,101365.00
2019-04-30T02:12:45.532Z,101359.00
2019-04-30T02:15:14.954Z,101355.00
2019-04-30T02:17:44.315Z,101366.00
2019-04-30T02:20:14.869Z,101366.00
2019-04-30T02:22:44.302Z,101356.00
2019-04-30T02:25:15.378Z,101370.00
2019-04-30T02:27:44.790Z,101368.00
2019-04-30T02:30:14.543Z,101373.00
2019-04-30T02:32:43.849Z,101369.00
2019-04-30T02:35:15.000Z,101368.00
2019-04-30T02:38:01.969Z,101364.00
2019-04-30T02:40:35.274Z,101372.00
2019-04-30T02:43:05.946Z,101360.00
2019-04-30T02:45:40.152Z,101352.00
2019-04-30T02:48:11.749Z,101371.00
2019-04-30T02:50:43.957Z,101366.00
2019-04-30T02:53:50.532Z,101374.00
2019-04-30T02:56:26.349Z,101372.00
2019-04-30T02:58:54.025Z,101362.00
2019-04-30T03:01:24.063Z,101375.00
2019-04-30T03:03:53.415Z,101373.00
2019-04-30T03:06:23.751Z,101373.00
2019-04-30T03:08:53.438Z,101373.00
2019-04-30T03:11:22.809Z,101373.00
2019-04-30T03:13:51.992Z,101377.00
2019-04-30T03:16:23.005Z,101379.00
2019-04-30T03:18:54.012Z,101383.00
2019-04-30T03:21:40.955Z,101384.00
2019-04-30T03:24:11.227Z,101380.00
2019-04-30T03:26:40.791Z,101381.00
2019-04-30T03:29:11.124Z,101375.00
2019-04-30T03:31:43.765Z,101382.00
2019-04-30T03:34:18.387Z,101376.00
2019-04-30T03:36:43.328Z,101379.00
2019-04-30T03:39:12.689Z,101396.00
2019-04-30T03:41:42.074Z,101392.00
2019-04-30T03:44:21.648Z,101393.00
2019-04-30T03:46:42.530Z,101382.00
2019-04-30T03:49:13.324Z,101386.00
2019-04-30T03:51:43.346Z,101383.00
2019-04-30T03:54:12.711Z,101385.00
2019-04-30T03:56:43.047Z,101387.00
2019-04-30T03:59:12.689Z,101394.00
2019-04-30T04:01:43.694Z,101392.00
2019-04-30T04:04:20.299Z,101400.00
2019-04-30T04:07:07.259Z,101397.00
2019-04-30T04:09:49.703Z,101402.00
2019-04-30T04:12:21.249Z,101408.00
2019-04-30T04:14:51.132Z,101408.00
2019-04-30T04:17:21.400Z,101420.00
2019-04-30T04:19:53.482Z,101401.00
2019-04-30T04:22:22.850Z,101419.00
2019-04-30T04:24:52.793Z,101412.00
2019-04-30T04:27:22.228Z,101416.00
2019-04-30T04:29:51.604Z,101418.00
2019-04-30T04:32:24.259Z,101424.00
2019-04-30T04:34:52.071Z,101426.00
2019-04-30T04:37:21.440Z,101414.00
2019-04-30T04:39:51.150Z,101429.00
2019-04-30T04:42:20.529Z,101426.00
2019-04-30T04:44:50.469Z,101426.00
2019-04-30T04:47:20.442Z,101421.00
2019-04-30T04:49:53.551Z,101426.00
2019-04-30T04:52:21.995Z,101424.00
2019-04-30T04:54:52.554Z,101422.00
2019-04-30T04:57:22.994Z,101420.00
2019-04-30T04:59:52.667Z,101427.00
2019-04-30T05:02:32.557Z,101427.00
2019-04-30T05:05:00.499Z,101433.00
2019-04-30T05:07:29.856Z,101436.00
2019-04-30T05:10:00.958Z,101440.00
2019-04-30T05:12:30.514Z,101421.00
2019-04-30T05:14:59.969Z,101437.00
2019-04-30T05:17:31.991Z,101439.00
2019-04-30T05:20:00.392Z,101442.00
2019-04-30T05:22:29.748Z,101443.00
2019-04-30T05:24:59.210Z,101437.00
2019-04-30T05:27:30.212Z,101438.00
2019-04-30T05:29:59.643Z,101440.00
2019-04-30T05:32:29.395Z,101442.00
2019-04-30T05:34:58.781Z,101442.00
2019-04-30T05:37:28.423Z,101449.00
2019-04-30T05:40:00.907Z,101439.00
2019-04-30T05:42:29.493Z,101437.00
2019-04-30T05:44:59.296Z,101438.00
2019-04-30T05:47:29.220Z,101443.00
2019-04-30T05:49:58.661Z,101450.00
2019-04-30T05:52:29.537Z,101442.00
2019-04-30T05:55:00.177Z,101451.00
2019-04-30T05:57:30.760Z,101445.00
2019-04-30T06:00:00.129Z,101441.00
2019-04-30T06:02:33.584Z,101444.00
2019-04-30T06:05:00.785Z,101440.00
2019-04-30T06:07:30.209Z,101449.00
2019-04-30T06:10:01.435Z,101450.00
2019-04-30T06:12:49.318Z,101436.00
2019-04-30T06:15:20.554Z,101451.00
2019-04-30T06:17:59.644Z,101447.00
2019-04-30T06:20:22.679Z,101453.00
2019-04-30T06:22:53.365Z,101456.00
2019-04-30T06:25:31.711Z,101451.00
2019-04-30T06:27:54.553Z,101460.00
2019-04-30T06:30:25.941Z,101454.00
2019-04-30T06:32:55.842Z,101454.00
2019-04-30T06:35:25.723Z,101465.00
2019-04-30T06:37:55.163Z,101463.00
2019-04-30T06:40:24.547Z,101450.00
2019-04-30T06:42:54.476Z,101460.00
2019-04-30T06:45:24.045Z,101454.00
2019-04-30T06:47:54.566Z,101448.00
2019-04-30T06:50:23.937Z,101459.00
2019-04-30T06:52:56.851Z,101445.00
2019-04-30T06:55:24.433Z,101450.00
2019-04-30T06:57:53.801Z,101445.00
2019-04-30T07:00:36.670Z,101454.00
2019-04-30T07:03:09.359Z,101459.00
2019-04-30T07:05:38.943Z,101448.00
2019-04-30T07:08:37.319Z,101451.00
2019-04-30T07:11:21.709Z,101444.00
2019-04-30T07:13:52.378Z,101449.00
2019-04-30T07:16:21.874Z,101452.00
2019-04-30T07:18:51.240Z,101455.00
2019-04-30T07:21:20.625Z,101449.00
2019-04-30T07:23:49.991Z,101458.00
2019-04-30T07:26:24.253Z,101447.00
2019-04-30T07:28:54.894Z,101455.00
2019-04-30T07:31:21.894Z,101436.00
2019-04-30T07:33:53.745Z,101441.00
2019-04-30T07:36:22.410Z,101447.00
2019-04-30T07:38:56.469Z,101436.00
2019-04-30T07:41:22.830Z,101445.00
2019-04-30T07:43:53.042Z,101454.00
2019-04-30T07:46:22.441Z,101448.00
2019-04-30T07:48:51.859Z,101451.00
2019-04-30T07:51:22.067Z,101452.00
2019-04-30T07:53:52.046Z,101457.00
2019-04-30T07:56:27.857Z,101420.00
2019-04-30T07:58:52.520Z,101451.00
2019-04-30T08:01:21.917Z,101446.00
2019-04-30T08:03:55.924Z,101449.00
2019-04-30T08:06:25.441Z,101444.00
2019-04-30T08:08:59.859Z,101450.00
2019-04-30T08:11:26.550Z,101451.00
2019-04-30T08:13:56.498Z,101448.00
2019-04-30T08:16:28.795Z,101453.00
2019-04-30T08:18:59.149Z,101466.00
2019-04-30T08:21:29.160Z,101461.00
2019-04-30T08:23:59.305Z,101466.00
2019-04-30T08:26:29.689Z,101457.00
2019-04-30T08:28:59.771Z,101457.00
2019-04-30T08:31:29.371Z,101466.00
2019-04-30T08:33:59.216Z,101469.00
2019-04-30T08:36:29.776Z,101463.00
2019-04-30T08:38:59.861Z,101457.00
2019-04-30T08:41:29.489Z,101447.00
2019-04-30T08:43:59.770Z,101462.00
2019-04-30T08:46:29.504Z,101446.00
2019-04-30T08:48:58.970Z,101469.00
2019-04-30T08:51:30.936Z,101458.00
2019-04-30T08:53:59.496Z,101456.00
2019-04-30T08:56:29.547Z,101449.00
2019-04-30T08:58:59.539Z,101448.00
2019-04-30T09:01:29.485Z,101446.00
2019-04-30T09:03:59.777Z,101434.00
2019-04-30T09:06:31.457Z,101445.00
2019-04-30T09:09:01.867Z,101455.00
2019-04-30T09:11:42.919Z,101446.00
2019-04-30T09:14:02.378Z,101450.00
2019-04-30T09:16:32.111Z,101436.00
2019-04-30T09:19:01.453Z,101435.00
2019-04-30T09:21:30.832Z,101441.00
2019-04-30T09:24:00.198Z,101433.00
2019-04-30T09:26:29.564Z,101432.00
2019-04-30T09:28:59.620Z,101405.00
2019-04-30T09:31:29.759Z,101438.00
2019-04-30T09:34:00.942Z,101430.00
2019-04-30T09:36:30.480Z,101444.00
2019-04-30T09:39:01.489Z,101416.00
2019-04-30T09:41:30.922Z,101456.00
2019-04-30T09:44:00.619Z,101457.00
2019-04-30T09:46:30.161Z,101455.00
2019-04-30T09:48:59.852Z,101453.00
2019-04-30T09:51:30.873Z,101459.00
2019-04-30T09:54:03.625Z,101443.00
2019-04-30T09:56:31.884Z,101435.00
2019-04-30T09:59:01.583Z,101422.00
2019-04-30T10:01:32.962Z,101418.00
2019-04-30T10:04:02.775Z,101417.00
2019-04-30T10:06:39.720Z,101419.00
2019-04-30T10:09:09.665Z,101427.00
2019-04-30T10:11:43.215Z,101418.00
2019-04-30T10:14:12.590Z,101418.00
2019-04-30T10:16:43.643Z,101407.00
2019-04-30T10:19:14.966Z,101422.00
2019-04-30T10:21:44.542Z,101409.00
2019-04-30T10:24:15.721Z,101415.00
2019-04-30T10:26:45.040Z,101400.00
2019-04-30T10:29:16.063Z,101402.00
2019-04-30T10:31:45.420Z,101394.00
2019-04-30T10:34:15.437Z,101400.00
2019-04-30T10:36:44.804Z,101392.00
2019-04-30T10:39:14.177Z,101397.00
2019-04-30T10:41:43.549Z,101393.00
2019-04-30T10:44:12.983Z,101393.00
2019-04-30T10:46:42.523Z,101394.00
2019-04-30T10:49:12.013Z,101404.00
2019-04-30T10:51:41.404Z,101389.00
2019-04-30T10:54:22.771Z,101389.00
2019-04-30T10:56:42.530Z,101385.00
2019-04-30T10:59:11.906Z,101387.00
2019-04-30T11:01:41.286Z,101384.00
2019-04-30T11:04:11.419Z,101384.00
2019-04-30T11:06:40.856Z,101381.00
2019-04-30T11:09:10.371Z,101370.00
2019-04-30T11:11:40.779Z,101382.00
2019-04-30T11:14:10.159Z,101382.00
2019-04-30T11:16:39.532Z,101365.00
2019-04-30T11:19:09.567Z,101379.00
2019-04-30T11:21:39.323Z,101376.00
2019-04-30T11:24:09.466Z,101371.00
2019-04-30T11:26:40.659Z,101375.00
2019-04-30T11:29:10.890Z,101375.00
2019-04-30T11:31:54.209Z,101372.00
2019-04-30T11:34:23.835Z,101388.00
2019-04-30T11:36:53.205Z,101373.00
2019-04-30T11:39:23.395Z,101363.00
2019-04-30T11:41:53.323Z,101370.00
2019-04-30T11:44:30.978Z,101366.00
2019-04-30T11:47:22.425Z,101361.00
2019-04-30T11:49:51.801Z,101371.00
2019-04-30T11:52:21.788Z,101349.00
2019-04-30T11:54:54.445Z,101367.00
2019-04-30T11:57:22.913Z,101360.00
2019-04-30T11:59:52.349Z,101362.00
2019-04-30T12:02:23.891Z,101361.00
2019-04-30T12:04:53.210Z,101351.00
2019-04-30T12:07:24.218Z,101349.00
2019-04-30T12:10:01.140Z,101350.00
2019-04-30T12:12:30.523Z,101343.00
2019-04-30T12:15:02.800Z,101349.00
2019-04-30T12:17:32.292Z,101332.00
2019-04-30T12:20:01.657Z,101347.00
2019-04-30T12:22:31.041Z,101339.00
2019-04-30T12:25:04.865Z,101339.00
2019-04-30T12:27:31.891Z,101344.00
2019-04-30T12:30:01.264Z,101332.00
2019-04-30T12:32:30.903Z,101319.00
2019-04-30T12:35:00.273Z,101342.00
2019-04-30T12:37:29.656Z,101325.00
2019-04-30T12:39:59.495Z,101326.00
2019-04-30T12:42:29.002Z,101334.00
2019-04-30T12:44:59.501Z,101325.00
2019-04-30T12:47:30.812Z,101331.00
2019-04-30T12:50:01.808Z,101323.00
2019-04-30T12:52:45.443Z,101324.00
2019-04-30T12:55:31.524Z,101328.00
2019-04-30T12:58:02.566Z,101321.00
2019-04-30T13:00:32.209Z,101310.00
2019-04-30T13:03:01.725Z,101313.00
2019-04-30T13:05:31.146Z,101312.00
2019-04-30T13:08:01.139Z,101314.00
2019-04-30T13:10:31.307Z,101311.00
2019-04-30T13:13:01.510Z,101300.00
2019-04-30T13:15:31.338Z,101315.00
2019-04-30T13:18:01.142Z,101307.00
2019-04-30T13:20:31.285Z,101303.00
2019-04-30T13:23:00.645Z,101293.00
2019-04-30T13:25:35.345Z,101290.00
2019-04-30T13:28:03.157Z,101297.00
2019-04-30T13:30:32.523Z,101297.00
2019-04-30T13:33:09.583Z,101290.00
2019-04-30T13:35:39.011Z,101287.00
2019-04-30T13:38:15.770Z,101294.00
2019-04-30T13:40:55.755Z,101271.00
2019-04-30T13:43:44.987Z,101281.00
2019-04-30T13:46:14.680Z,101279.00
2019-04-30T13:48:44.055Z,101280.00
2019-04-30T13:51:13.417Z,101276.00
2019-04-30T13:53:42.825Z,101282.00
2019-04-30T13:56:12.200Z,101280.00
2019-04-30T13:58:41.569Z,101269.00
2019-04-30T14:01:10.950Z,101258.00
2019-04-30T14:03:53.997Z,101281.00
2019-04-30T14:06:28.968Z,101278.00
2019-04-30T14:09:00.918Z,101272.00
2019-04-30T14:11:30.294Z,101274.00
2019-04-30T14:13:59.671Z,101262.00
2019-04-30T14:16:29.052Z,101256.00
2019-04-30T14:18:59.603Z,101264.00
2019-04-30T14:21:34.711Z,101269.00
2019-04-30T14:24:00.597Z,101258.00
2019-04-30T14:26:29.980Z,101263.00
2019-04-30T14:28:59.371Z,101261.00
2019-04-30T14:31:28.893Z,101264.00
2019-04-30T14:33:59.343Z,101273.00
2019-04-30T14:36:29.242Z,101272.00
2019-04-30T14:39:13.072Z,101269.00
2019-04-30T14:41:32.506Z,101276.00
2019-04-30T14:44:03.875Z,101270.00
2019-04-30T14:46:41.380Z,101267.00
2019-04-30T14:49:16.537Z,101272.00
2019-04-30T14:51:46.547Z,101266.00
2019-04-30T14:54:20.438Z,101277.00
2019-04-30T14:56:54.001Z,101257.00
2019-04-30T14:59:33.954Z,101263.00
2019-04-30T15:02:21.374Z,101258.00
2019-04-30T15:04:50.741Z,101253.00
2019-04-30T15:07:20.115Z,101264.00
2019-04-30T15:09:49.580Z,101274.00
2019-04-30T15:12:19.206Z,101270.00
2019-04-30T15:14:49.255Z,101267.00
2019-04-30T15:17:18.887Z,101264.00
2019-04-30T15:19:49.355Z,101262.00
2019-04-30T15:22:19.739Z,101258.00
2019-04-30T15:24:49.283Z,101257.00
2019-04-30T15:27:19.191Z,101270.00
2019-04-30T15:29:56.703Z,101250.00
2019-04-30T15:32:19.938Z,101249.00
2019-04-30T15:34:49.291Z,101252.00
2019-04-30T15:37:23.506Z,101251.00
2019-04-30T15:39:52.265Z,101243.00
2019-04-30T15:42:22.757Z,101242.00
2019-04-30T15:44:52.126Z,101259.00
2019-04-30T15:47:23.076Z,101253.00
2019-04-30T15:49:52.458Z,101253.00
2019-04-30T15:52:21.972Z,101254.00
2019-04-30T15:54:51.377Z,101248.00
2019-04-30T15:57:20.759Z,101247.00
2019-04-30T15:59:50.129Z,101245.00
2019-04-30T16:02:28.755Z,101248.00
2019-04-30T16:05:02.751Z,101238.00
2019-04-30T16:07:32.114Z,101233.00
2019-04-30T16:10:03.190Z,101236.00
2019-04-30T16:15:14.397Z,101231.00
2019-04-30T16:17:45.439Z,101226.00
2019-04-30T16:20:15.448Z,101233.00
2019-04-30T16:22:44.839Z,101237.00
2019-04-30T16:25:14.431Z,101230.00
2019-04-30T16:27:43.807Z,101227.00
2019-04-30T16:30:15.485Z,101223.00
2019-04-30T16:32:45.099Z,101222.00
2019-04-30T16:35:14.613Z,101221.00
2019-04-30T16:37:43.986Z,101210.00
2019-04-30T16:40:13.833Z,101210.00
2019-04-30T16:42:43.202Z,101217.00
2019-04-30T16:45:13.590Z,101217.00
2019-04-30T16:47:42.960Z,101215.00
2019-04-30T16:50:12.397Z,101211.00
2019-04-30T16:52:41.955Z,101216.00
2019-04-30T16:55:11.962Z,101218.00
2019-04-30T16:57:41.444Z,101219.00
2019-04-30T17:00:15.405Z,101212.00
2019-04-30T17:02:45.696Z,101206.00
2019-04-30T17:05:19.480Z,101220.00
2019-04-30T17:07:50.698Z,101210.00
2019-04-30T17:10:21.865Z,101210.00
2019-04-30T17:12:59.306Z,101213.00
2019-04-30T17:15:32.948Z,101200.00
2019-04-30T17:18:03.104Z,101204.00
2019-04-30T17:20:32.788Z,101213.00
2019-04-30T17:23:02.153Z,101205.00
2019-04-30T17:25:31.533Z,101211.00
2019-04-30T17:28:01.507Z,101210.00
2019-04-30T17:30:30.957Z,101201.00
2019-04-30T17:33:00.316Z,101202.00
2019-04-30T17:35:29.941Z,101206.00
2019-04-30T17:37:59.315Z,101206.00
2019-04-30T17:40:29.216Z,101201.00
2019-04-30T17:42:58.951Z,101201.00
2019-04-30T17:45:29.206Z,101208.00
2019-04-30T17:47:58.580Z,101202.00
2019-04-30T17:50:29.577Z,101199.00
2019-04-30T17:53:00.670Z,101198.00
2019-04-30T17:55:30.161Z,101197.00
2019-04-30T17:57:59.545Z,101194.00
2019-04-30T18:00:30.559Z,101189.00
2019-04-30T18:02:59.925Z,101204.00
2019-04-30T18:05:29.778Z,101195.00
2019-04-30T18:07:59.171Z,101195.00
2019-04-30T18:10:28.714Z,101200.00
2019-04-30T18:12:58.110Z,101205.00
2019-04-30T18:15:29.125Z,101201.00
2019-04-30T18:18:00.130Z,101206.00
2019-04-30T18:20:43.124Z,101210.00
2019-04-30T18:23:27.211Z,101204.00
2019-04-30T18:25:58.407Z,101218.00
2019-04-30T18:28:29.162Z,101213.00
2019-04-30T18:30:59.105Z,101212.00
2019-04-30T18:33:28.595Z,101224.00
2019-04-30T18:35:59.663Z,101212.00
2019-04-30T18:38:31.046Z,101217.00
2019-04-30T18:41:00.618Z,101204.00
2019-04-30T18:43:29.984Z,101219.00
2019-04-30T18:46:00.709Z,101219.00
2019-04-30T18:48:30.203Z,101212.00
2019-04-30T18:50:59.603Z,101214.00
2019-04-30T18:53:30.617Z,101207.00
2019-04-30T18:55:59.997Z,101212.00
2019-04-30T18:58:39.275Z,101214.00
2019-04-30T19:01:00.457Z,101223.00
2019-04-30T19:03:30.022Z,101214.00
2019-04-30T19:06:01.037Z,101217.00
2019-04-30T19:08:32.043Z,101221.00
2019-04-30T19:11:05.748Z,101229.00
2019-04-30T19:13:51.680Z,101225.00
2019-04-30T19:16:25.771Z,101225.00
2019-04-30T19:19:01.609Z,101217.00
2019-04-30T19:21:31.135Z,101231.00
2019-04-30T19:24:01.739Z,101225.00
2019-04-30T19:26:31.170Z,101225.00
2019-04-30T19:29:00.546Z,101223.00
2019-04-30T19:31:29.918Z,101231.00
2019-04-30T19:33:59.279Z,101233.00
2019-04-30T19:36:37.418Z,101231.00
2019-04-30T19:39:00.234Z,101232.00
2019-04-30T19:41:29.600Z,101227.00
2019-04-30T19:43:59.323Z,101221.00
2019-04-30T19:46:29.407Z,101231.00
2019-04-30T19:48:58.899Z,101226.00
2019-04-30T19:51:29.597Z,101222.00
2019-04-30T19:53:59.883Z,101225.00
2019-04-30T19:56:30.410Z,101212.00
2019-04-30T19:59:05.134Z,101223.00
2019-04-30T20:01:32.198Z,101222.00
2019-04-30T20:04:01.564Z,101220.00
2019-04-30T20:06:31.013Z,101220.00
2019-04-30T20:09:00.748Z,101220.00
2019-04-30T20:11:30.229Z,101221.00
2019-04-30T20:13:59.611Z,101223.00
2019-04-30T20:16:28.969Z,101230.00
2019-04-30T20:18:59.215Z,101238.00
2019-04-30T20:21:45.321Z,101224.00
2019-04-30T20:24:01.436Z,101224.00
2019-04-30T20:26:32.069Z,101219.00
2019-04-30T20:29:01.443Z,101217.00
2019-04-30T20:31:30.818Z,101216.00
2019-04-30T20:34:01.529Z,101210.00
2019-04-30T20:36:31.173Z,101216.00
2019-04-30T20:39:02.249Z,101213.00
2019-04-30T20:41:33.325Z,101219.00
2019-04-30T20:44:02.748Z,101212.00
2019-04-30T20:46:35.173Z,101214.00
2019-04-30T20:49:03.183Z,101198.00
2019-04-30T20:51:34.151Z,101211.00
2019-04-30T20:54:03.517Z,101194.00
2019-04-30T20:56:32.941Z,101198.00
2019-04-30T20:59:06.320Z,101202.00
2019-04-30T21:01:33.422Z,101202.00
2019-04-30T21:04:02.790Z,101202.00
2019-04-30T21:06:32.172Z,101210.00
2019-04-30T21:09:01.546Z,101195.00
2019-04-30T21:11:30.916Z,101200.00
2019-04-30T21:14:00.442Z,101202.00
2019-04-30T21:16:29.808Z,101192.00
2019-04-30T21:18:59.174Z,101197.00
2019-04-30T21:21:28.885Z,101198.00
2019-04-30T21:23:58.499Z,101191.00
2019-04-30T21:26:27.895Z,101191.00
2019-04-30T21:29:10.681Z,101193.00
2019-04-30T21:31:31.166Z,101192.00
2019-04-30T21:34:02.269Z,101190.00
2019-04-30T21:36:31.677Z,101191.00
2019-04-30T21:39:01.329Z,101185.00
2019-04-30T21:41:30.708Z,101190.00
2019-04-30T21:44:00.103Z,101186.00
2019-04-30T21:46:29.514Z,101179.00
2019-04-30T21:48:58.914Z,101174.00
2019-04-30T21:51:28.294Z,101184.00
2019-04-30T21:53:57.707Z,101171.00
2019-04-30T21:56:27.125Z,101184.00
2019-04-30T21:58:56.529Z,101173.00
2019-04-30T22:01:25.999Z,101176.00
2019-04-30T22:03:55.332Z,101174.00
2019-04-30T22:06:24.714Z,101166.00
2019-04-30T22:08:54.077Z,101171.00
2019-04-30T22:11:23.454Z,101166.00
2019-04-30T22:13:52.910Z,101165.00
2019-04-30T22:16:22.280Z,101162.00
2019-04-30T22:18:51.667Z,101165.00
2019-04-30T22:21:21.169Z,101161.00
2019-04-30T22:23:50.539Z,101150.00
2019-04-30T22:26:19.916Z,101157.00
2019-04-30T22:28:49.558Z,101152.00
2019-04-30T22:31:20.153Z,101147.00
2019-04-30T22:33:49.539Z,101154.00
2019-04-30T22:36:21.435Z,101150.00
2019-04-30T22:38:52.444Z,101146.00
2019-04-30T22:41:26.031Z,101146.00
2019-04-30T22:43:55.880Z,101147.00
2019-04-30T22:46:25.257Z,101158.00
2019-04-30T22:48:54.614Z,101140.00
2019-04-30T22:51:24.005Z,101137.00
2019-04-30T22:53:53.371Z,101138.00
2019-04-30T22:56:22.746Z,101126.00
2019-04-30T22:58:52.128Z,101122.00
2019-04-30T23:01:28.976Z,101125.00
2019-04-30T23:04:00.022Z,101123.00
2019-04-30T23:06:29.392Z,101122.00
2019-04-30T23:08:58.765Z,101120.00
2019-04-30T23:11:28.159Z,101107.00
2019-04-30T23:13:57.511Z,101105.00
2019-04-30T23:16:26.894Z,101109.00
2019-04-30T23:18:56.275Z,101099.00
2019-04-30T23:21:25.650Z,101071.00
2019-04-30T23:23:55.029Z,101086.00
2019-04-30T23:26:24.962Z,101094.00
2019-04-30T23:28:54.331Z,101086.00
2019-04-30T23:31:23.704Z,101090.00
2019-04-30T23:33:53.897Z,101101.00
2019-04-30T23:36:23.267Z,101091.00
2019-04-30T23:38:52.642Z,101082.00
2019-04-30T23:41:22.554Z,101083.00
2019-04-30T23:43:51.915Z,101080.00
2019-04-30T23:46:21.296Z,101071.00
2019-04-30T23:48:51.142Z,101062.00
2019-04-30T23:51:20.520Z,101076.00
2019-04-30T23:53:49.899Z,101076.00
2019-04-30T23:56:19.290Z,101061.00
2019-04-30T23:58:48.658Z,101066.00
